createdAt,value
2023-04-18T00:00:16.206Z,8.01
2023-04-18T00:01:16.165Z,11.23
2023-04-18T00:02:16.224Z,4.79
2023-04-18T00:03:16.655Z,9.62
2023-04-18T00:04:16.605Z,7.69
2023-04-18T00:05:16.171Z,9.62
2023-04-18T00:06:16.114Z,7.36
2023-04-18T00:07:16.102Z,6.72
2023-04-18T00:08:16.100Z,6.72
2023-04-18T00:09:16.123Z,7.69
2023-04-18T00:10:16.167Z,9.30
2023-04-18T00:11:16.059Z,7.69
2023-04-18T00:12:16.051Z,7.69
2023-04-18T00:13:16.030Z,5.43
2023-04-18T00:14:16.101Z,4.79
2023-04-18T00:15:16.042Z,5.43
2023-04-18T00:16:16.064Z,7.69
2023-04-18T00:17:15.996Z,10.91
2023-04-18T00:18:15.992Z,9.94
2023-04-18T00:19:15.972Z,4.46
2023-04-18T00:20:16.048Z,4.79
2023-04-18T00:21:15.969Z,7.36
2023-04-18T00:22:15.956Z,7.69
2023-04-18T00:23:15.975Z,9.30
2023-04-18T00:24:16.048Z,7.04
2023-04-18T00:25:15.949Z,9.62
2023-04-18T00:26:15.932Z,4.14
2023-04-18T00:27:15.890Z,3.17
2023-04-18T00:28:15.886Z,9.94
2023-04-18T00:29:15.882Z,7.36
2023-04-18T00:30:15.918Z,7.69
2023-04-18T00:31:15.878Z,8.01
2023-04-18T00:32:15.927Z,6.40
2023-04-18T00:33:15.827Z,6.72
2023-04-18T00:34:15.930Z,7.69
2023-04-18T00:35:15.849Z,8.01
2023-04-18T00:36:15.813Z,10.59
2023-04-18T00:37:15.837Z,7.69
2023-04-18T00:38:15.777Z,7.04
2023-04-18T00:39:15.780Z,7.36
2023-04-18T00:40:15.781Z,9.94
2023-04-18T00:41:15.753Z,4.79
2023-04-18T00:42:15.751Z,4.79
2023-04-18T00:43:15.731Z,7.04
2023-04-18T00:44:15.886Z,7.69
2023-04-18T00:45:15.734Z,9.62
2023-04-18T00:46:15.722Z,7.04
2023-04-18T00:47:15.689Z,7.04
2023-04-18T00:48:15.685Z,2.85
2023-04-18T00:49:15.669Z,6.40
2023-04-18T00:50:15.722Z,9.94
2023-04-18T00:51:15.657Z,7.69
2023-04-18T00:52:15.634Z,11.23
2023-04-18T00:53:15.624Z,7.36
2023-04-18T00:54:15.855Z,7.04
2023-04-18T00:55:15.626Z,4.14
2023-04-18T00:56:15.593Z,8.33
2023-04-18T00:57:15.589Z,7.69
2023-04-18T00:58:15.580Z,9.62
2023-04-18T00:59:15.568Z,7.36
2023-04-18T01:00:15.619Z,7.69
2023-04-18T01:01:15.592Z,6.40
2023-04-18T01:02:15.605Z,7.04
2023-04-18T01:03:15.600Z,3.50
2023-04-18T01:04:15.880Z,7.04
2023-04-18T01:05:15.539Z,3.50
2023-04-18T01:06:15.500Z,7.04
2023-04-18T01:07:15.520Z,4.79
2023-04-18T01:08:15.464Z,7.04
2023-04-18T01:09:15.468Z,6.72
2023-04-18T01:10:15.498Z,7.36
2023-04-18T01:11:15.442Z,7.36
2023-04-18T01:12:15.426Z,3.82
2023-04-18T01:13:15.430Z,5.43
2023-04-18T01:14:15.485Z,10.59
2023-04-18T01:15:15.441Z,9.94
2023-04-18T01:16:15.434Z,9.30
2023-04-18T01:17:15.388Z,10.91
2023-04-18T01:18:15.380Z,3.82
2023-04-18T01:19:15.371Z,7.69
2023-04-18T01:20:15.368Z,2.85
2023-04-18T01:21:15.345Z,7.36
2023-04-18T01:22:15.325Z,7.04
2023-04-18T01:23:15.322Z,8.01
2023-04-18T01:24:15.737Z,7.04
2023-04-18T01:25:15.334Z,7.69
2023-04-18T01:26:15.284Z,9.62
2023-04-18T01:27:15.284Z,7.04
2023-04-18T01:28:15.273Z,7.36
2023-04-18T01:29:15.258Z,9.62
2023-04-18T01:30:15.272Z,7.36
2023-04-18T01:31:15.335Z,5.43
2023-04-18T01:32:15.221Z,2.53
2023-04-18T01:33:15.237Z,4.46
2023-04-18T01:34:15.487Z,7.36
2023-04-18T01:35:15.319Z,5.11
2023-04-18T01:36:15.176Z,7.04
2023-04-18T01:37:15.192Z,4.46
2023-04-18T01:38:15.156Z,2.21
2023-04-18T01:39:15.164Z,7.36
2023-04-18T01:40:15.157Z,6.72
2023-04-18T01:41:15.131Z,10.59
2023-04-18T01:42:15.126Z,7.36
2023-04-18T01:43:15.127Z,7.04
2023-04-18T01:44:15.306Z,7.04
2023-04-18T01:45:15.120Z,4.46
2023-04-18T01:46:15.125Z,3.17
2023-04-18T01:47:15.082Z,7.69
2023-04-18T01:48:15.061Z,6.72
2023-04-18T01:49:15.060Z,4.79
2023-04-18T01:50:15.040Z,5.11
2023-04-18T01:51:15.049Z,2.53
2023-04-18T01:52:15.013Z,11.23
2023-04-18T01:53:15.024Z,7.69
2023-04-18T01:54:15.320Z,6.40
2023-04-18T01:55:15.014Z,8.01
2023-04-18T01:56:14.980Z,4.14
2023-04-18T01:57:14.969Z,8.97
2023-04-18T01:58:14.950Z,8.01
2023-04-18T01:59:14.962Z,11.23
2023-04-18T02:00:14.985Z,11.55
2023-04-18T02:01:14.973Z,6.40
2023-04-18T02:02:14.969Z,8.01
2023-04-18T02:03:15.028Z,7.69
2023-04-18T02:04:15.219Z,5.11
2023-04-18T02:05:14.924Z,7.36
2023-04-18T02:06:14.865Z,8.01
2023-04-18T02:07:14.861Z,4.79
2023-04-18T02:08:14.851Z,11.23
2023-04-18T02:09:14.855Z,7.04
2023-04-18T02:10:14.914Z,4.46
2023-04-18T02:11:14.834Z,8.01
2023-04-18T02:12:14.812Z,6.07
2023-04-18T02:13:14.810Z,6.07
2023-04-18T02:14:15.088Z,7.36
2023-04-18T02:15:14.822Z,7.36
2023-04-18T02:16:14.846Z,2.85
2023-04-18T02:17:14.766Z,6.72
2023-04-18T02:18:14.753Z,11.55
2023-04-18T02:19:14.750Z,1.88
2023-04-18T02:20:14.784Z,7.69
2023-04-18T02:21:14.770Z,7.69
2023-04-18T02:22:14.712Z,7.04
2023-04-18T02:23:14.709Z,4.46
2023-04-18T02:24:14.955Z,5.43
2023-04-18T02:25:14.682Z,7.69
2023-04-18T02:26:14.694Z,8.97
2023-04-18T02:27:14.669Z,6.07
2023-04-18T02:28:14.656Z,5.43
2023-04-18T02:29:14.660Z,6.07
2023-04-18T02:30:14.679Z,5.43
2023-04-18T02:31:14.831Z,6.72
2023-04-18T02:32:14.612Z,7.69
2023-04-18T02:33:14.607Z,7.69
2023-04-18T02:34:14.847Z,11.23
2023-04-18T02:35:14.585Z,8.01
2023-04-18T02:36:14.588Z,7.04
2023-04-18T02:37:14.572Z,7.36
2023-04-18T02:38:14.553Z,8.33
2023-04-18T02:39:14.556Z,10.26
2023-04-18T02:40:14.532Z,5.43
2023-04-18T02:41:14.557Z,7.69
2023-04-18T02:42:14.510Z,8.01
2023-04-18T02:43:14.504Z,6.07
2023-04-18T02:44:14.758Z,7.69
2023-04-18T02:45:14.499Z,9.94
2023-04-18T02:46:14.557Z,5.43
2023-04-18T02:47:14.463Z,5.43
2023-04-18T02:48:14.457Z,3.50
2023-04-18T02:49:14.436Z,7.69
2023-04-18T02:50:14.435Z,8.01
2023-04-18T02:51:14.443Z,7.69
2023-04-18T02:52:14.432Z,9.30
2023-04-18T02:53:14.461Z,7.36
2023-04-18T02:54:14.597Z,8.01
2023-04-18T02:55:14.382Z,7.69
2023-04-18T02:56:14.391Z,7.36
2023-04-18T02:57:14.365Z,3.82
2023-04-18T02:58:14.343Z,8.01
2023-04-18T02:59:14.339Z,7.04
2023-04-18T03:00:14.322Z,7.36
2023-04-18T03:01:14.366Z,5.43
2023-04-18T03:02:14.325Z,3.17
2023-04-18T03:03:14.360Z,8.01
2023-04-18T03:04:14.400Z,4.46
2023-04-18T03:05:14.293Z,6.72
2023-04-18T03:06:14.269Z,9.62
2023-04-18T03:07:14.262Z,7.36
2023-04-18T03:08:14.241Z,7.69
2023-04-18T03:09:14.266Z,5.43
2023-04-18T03:10:14.339Z,3.50
2023-04-18T03:11:14.235Z,7.04
2023-04-18T03:12:14.197Z,8.01
2023-04-18T03:13:14.197Z,7.69
2023-04-18T03:14:14.432Z,10.26
2023-04-18T03:15:14.179Z,8.01
2023-04-18T03:16:14.216Z,9.94
2023-04-18T03:17:14.166Z,9.30
2023-04-18T03:18:14.146Z,7.04
2023-04-18T03:19:14.137Z,7.69
2023-04-18T03:20:14.126Z,8.65
2023-04-18T03:21:14.180Z,7.69
2023-04-18T03:22:14.158Z,7.69
2023-04-18T03:23:14.105Z,7.69
2023-04-18T03:24:14.300Z,7.04
2023-04-18T03:25:14.094Z,7.36
2023-04-18T03:26:14.077Z,7.69
2023-04-18T03:27:14.055Z,5.75
2023-04-18T03:28:14.041Z,8.01
2023-04-18T03:29:14.043Z,7.69
2023-04-18T03:30:14.039Z,8.65
2023-04-18T03:31:14.050Z,8.01
2023-04-18T03:32:13.992Z,14.13
2023-04-18T03:33:14.001Z,9.94
2023-04-18T03:34:14.123Z,7.36
2023-04-18T03:35:13.974Z,5.11
2023-04-18T03:36:13.977Z,5.11
2023-04-18T03:37:13.953Z,7.69
2023-04-18T03:38:13.939Z,4.14
2023-04-18T03:39:13.945Z,7.36
2023-04-18T03:40:13.912Z,8.33
2023-04-18T03:41:13.935Z,5.43
2023-04-18T03:42:13.911Z,4.14
2023-04-18T03:43:13.906Z,8.97
2023-04-18T03:44:14.119Z,7.69
2023-04-18T03:45:13.881Z,6.72
2023-04-18T03:46:13.967Z,7.69
2023-04-18T03:47:13.871Z,4.46
2023-04-18T03:48:13.855Z,4.79
2023-04-18T03:49:13.786Z,5.75
2023-04-18T03:50:13.834Z,7.36
2023-04-18T03:51:13.830Z,8.01
2023-04-18T03:52:13.827Z,8.01
2023-04-18T03:53:13.755Z,6.07
2023-04-18T03:54:13.895Z,7.04
2023-04-18T03:55:13.725Z,7.36
2023-04-18T03:56:13.782Z,7.36
2023-04-18T03:57:13.761Z,9.62
2023-04-18T03:58:13.710Z,7.69
2023-04-18T03:59:13.698Z,10.26
2023-04-18T04:00:13.707Z,6.07
2023-04-18T04:01:13.751Z,7.04
2023-04-18T04:02:13.821Z,3.50
2023-04-18T04:03:13.791Z,7.04
2023-04-18T04:04:14.206Z,10.59
2023-04-18T04:05:13.629Z,6.07
2023-04-18T04:06:13.646Z,5.43
2023-04-18T04:07:13.610Z,6.40
2023-04-18T04:08:13.592Z,7.36
2023-04-18T04:09:13.581Z,7.36
2023-04-18T04:10:13.601Z,10.26
2023-04-18T04:11:13.589Z,9.62
2023-04-18T04:12:13.553Z,7.04
2023-04-18T04:13:13.639Z,7.69
2023-04-18T04:14:13.979Z,5.11
2023-04-18T04:15:13.522Z,7.36
2023-04-18T04:16:13.617Z,8.01
2023-04-18T04:17:13.507Z,7.36
2023-04-18T04:18:13.494Z,11.23
2023-04-18T04:19:13.510Z,7.36
2023-04-18T04:20:13.469Z,7.04
2023-04-18T04:21:13.500Z,7.36
2023-04-18T04:22:13.566Z,8.97
2023-04-18T04:23:13.458Z,8.01
2023-04-18T04:24:13.928Z,7.69
2023-04-18T04:25:13.422Z,9.62
2023-04-18T04:26:13.422Z,9.94
2023-04-18T04:27:13.413Z,8.01
2023-04-18T04:28:13.385Z,5.43
2023-04-18T04:29:13.394Z,4.79
2023-04-18T04:30:13.540Z,9.30
2023-04-18T04:31:13.707Z,8.33
2023-04-18T04:32:13.391Z,6.40
2023-04-18T04:33:13.345Z,7.69
2023-04-18T04:34:13.494Z,5.43
2023-04-18T04:35:13.342Z,7.04
2023-04-18T04:36:13.676Z,4.14
2023-04-18T04:37:13.320Z,6.72
2023-04-18T04:38:13.289Z,12.20
2023-04-18T04:39:13.288Z,8.01
2023-04-18T04:40:13.272Z,7.36
2023-04-18T04:41:13.293Z,8.01
2023-04-18T04:42:13.283Z,7.69
2023-04-18T04:43:13.239Z,7.69
2023-04-18T04:44:13.431Z,8.01
2023-04-18T04:45:13.221Z,11.55
2023-04-18T04:46:13.277Z,9.62
2023-04-18T04:47:13.206Z,8.65
2023-04-18T04:48:13.191Z,7.36
2023-04-18T04:49:13.175Z,7.69
2023-04-18T04:50:13.261Z,6.72
2023-04-18T04:51:13.170Z,4.79
2023-04-18T04:52:13.141Z,5.75
2023-04-18T04:53:13.208Z,10.91
2023-04-18T04:54:13.302Z,7.36
2023-04-18T04:55:13.145Z,5.75
2023-04-18T04:56:13.140Z,4.79
2023-04-18T04:57:13.090Z,8.01
2023-04-18T04:58:13.118Z,9.62
2023-04-18T04:59:13.139Z,7.69
2023-04-18T05:00:13.061Z,8.01
2023-04-18T05:01:13.125Z,6.07
2023-04-18T05:02:13.133Z,11.55
2023-04-18T05:03:13.167Z,5.43
2023-04-18T05:04:13.373Z,7.36
2023-04-18T05:05:13.018Z,7.69
2023-04-18T05:06:13.027Z,10.59
2023-04-18T05:07:13.012Z,7.36
2023-04-18T05:08:13.001Z,6.72
2023-04-18T05:09:12.978Z,4.14
2023-04-18T05:10:12.988Z,6.40
2023-04-18T05:11:13.097Z,9.30
2023-04-18T05:12:13.049Z,7.36
2023-04-18T05:13:12.950Z,8.33
2023-04-18T05:14:13.266Z,10.91
2023-04-18T05:15:13.021Z,5.43
2023-04-18T05:16:13.001Z,11.55
2023-04-18T05:17:12.900Z,9.30
2023-04-18T05:18:12.922Z,7.69
2023-04-18T05:19:12.882Z,7.69
2023-04-18T05:20:12.876Z,7.04
2023-04-18T05:21:12.955Z,7.69
2023-04-18T05:22:12.854Z,7.69
2023-04-18T05:23:12.833Z,7.04
2023-04-18T05:24:13.080Z,7.04
2023-04-18T05:25:12.880Z,10.91
2023-04-18T05:26:12.820Z,4.46
2023-04-18T05:27:12.803Z,7.69
2023-04-18T05:28:12.807Z,7.69
2023-04-18T05:29:12.775Z,8.33
2023-04-18T05:30:12.761Z,6.40
2023-04-18T05:31:12.798Z,8.97
2023-04-18T05:32:12.746Z,4.46
2023-04-18T05:33:12.750Z,6.40
2023-04-18T05:34:12.948Z,5.11
2023-04-18T05:35:12.719Z,7.36
2023-04-18T05:36:12.723Z,7.69
2023-04-18T05:37:12.703Z,8.01
2023-04-18T05:38:12.710Z,7.69
2023-04-18T05:39:12.672Z,8.01
2023-04-18T05:40:12.677Z,4.46
2023-04-18T05:41:12.727Z,6.40
2023-04-18T05:42:12.663Z,8.01
2023-04-18T05:43:12.633Z,8.33
2023-04-18T05:44:12.641Z,8.01
2023-04-18T05:45:12.618Z,8.33
2023-04-18T05:46:12.684Z,5.43
2023-04-18T05:47:12.601Z,8.01
2023-04-18T05:48:12.590Z,5.75
2023-04-18T05:49:12.583Z,9.62
2023-04-18T05:50:12.658Z,8.01
2023-04-18T05:51:12.556Z,4.46
2023-04-18T05:52:12.553Z,4.14
2023-04-18T05:53:12.528Z,8.01
2023-04-18T05:54:12.862Z,9.94
2023-04-18T05:55:12.557Z,4.46
2023-04-18T05:56:13.288Z,7.69
2023-04-18T05:57:12.492Z,9.62
2023-04-18T05:58:12.487Z,7.69
2023-04-18T05:59:12.479Z,7.69
2023-04-18T06:00:12.461Z,7.69
2023-04-18T06:01:12.461Z,4.14
2023-04-18T06:02:12.592Z,11.55
2023-04-18T06:03:12.593Z,10.59
2023-04-18T06:04:12.640Z,8.33
2023-04-18T06:05:12.571Z,7.69
2023-04-18T06:06:12.427Z,7.69
2023-04-18T06:07:12.408Z,5.43
2023-04-18T06:08:12.387Z,5.75
2023-04-18T06:09:12.423Z,4.79
2023-04-18T06:10:12.412Z,4.46
2023-04-18T06:11:12.384Z,8.65
2023-04-18T06:12:12.364Z,6.72
2023-04-18T06:13:12.325Z,6.40
2023-04-18T06:14:12.600Z,11.55
2023-04-18T06:15:12.311Z,9.62
2023-04-18T06:16:12.340Z,8.01
2023-04-18T06:17:12.339Z,8.01
2023-04-18T06:18:12.280Z,10.91
2023-04-18T06:19:12.284Z,7.69
2023-04-18T06:20:12.261Z,7.36
2023-04-18T06:21:12.254Z,8.33
2023-04-18T06:22:12.302Z,7.69
2023-04-18T06:23:12.227Z,8.01
2023-04-18T06:24:12.392Z,12.20
2023-04-18T06:25:12.254Z,5.75
2023-04-18T06:26:12.237Z,8.01
2023-04-18T06:27:24.165Z,5.75
2023-04-18T06:28:12.183Z,7.36
2023-04-18T06:29:12.176Z,8.33
2023-04-18T06:30:12.160Z,2.85
2023-04-18T06:31:12.196Z,7.69
2023-04-18T06:32:12.146Z,9.94
2023-04-18T06:33:12.134Z,7.69
2023-04-18T06:34:12.421Z,6.40
2023-04-18T06:35:12.096Z,5.43
2023-04-18T06:36:12.117Z,6.07
2023-04-18T06:37:12.099Z,8.65
2023-04-18T06:38:12.146Z,9.94
2023-04-18T06:39:12.063Z,7.04
2023-04-18T06:40:12.050Z,6.07
2023-04-18T06:41:12.065Z,6.07
2023-04-18T06:42:12.050Z,9.62
2023-04-18T06:43:12.033Z,9.62
2023-04-18T06:44:12.003Z,8.65
2023-04-18T06:45:11.993Z,8.65
2023-04-18T06:46:12.021Z,9.62
2023-04-18T06:47:11.989Z,11.87
2023-04-18T06:48:11.985Z,8.65
2023-04-18T06:49:11.950Z,7.69
2023-04-18T06:50:11.957Z,7.69
2023-04-18T06:51:11.987Z,8.01
2023-04-18T06:52:11.939Z,11.23
2023-04-18T06:53:11.918Z,8.65
2023-04-18T06:54:12.094Z,8.01
2023-04-18T06:55:11.900Z,8.33
2023-04-18T06:56:11.940Z,7.69
2023-04-18T06:57:11.870Z,5.43
2023-04-18T06:58:11.867Z,7.69
2023-04-18T06:59:12.071Z,10.59
2023-04-18T07:00:11.838Z,8.65
2023-04-18T07:01:11.925Z,6.07
2023-04-18T07:02:11.842Z,4.46
2023-04-18T07:03:11.985Z,8.33
2023-04-18T07:04:11.881Z,8.33
2023-04-18T07:05:11.783Z,8.97
2023-04-18T07:06:11.797Z,8.97
2023-04-18T07:07:11.752Z,6.07
2023-04-18T07:08:11.754Z,11.87
2023-04-18T07:09:11.737Z,9.94
2023-04-18T07:10:11.765Z,8.97
2023-04-18T07:11:11.739Z,8.33
2023-04-18T07:12:11.765Z,8.65
2023-04-18T07:13:11.727Z,8.97
2023-04-18T07:14:12.009Z,8.65
2023-04-18T07:15:11.672Z,8.33
2023-04-18T07:16:11.704Z,7.04
2023-04-18T07:17:11.734Z,8.97
2023-04-18T07:18:12.475Z,11.55
2023-04-18T07:19:11.670Z,8.01
2023-04-18T07:20:12.995Z,10.91
2023-04-18T07:21:11.669Z,7.69
2023-04-18T07:22:11.624Z,7.69
2023-04-18T07:23:11.598Z,8.01
2023-04-18T07:24:11.778Z,7.36
2023-04-18T07:25:11.579Z,9.30
2023-04-18T07:26:11.577Z,4.46
2023-04-18T07:27:11.561Z,10.59
2023-04-18T07:28:11.550Z,11.55
2023-04-18T07:29:11.524Z,8.33
2023-04-18T07:30:11.564Z,5.75
2023-04-18T07:31:11.729Z,9.62
2023-04-18T07:32:11.526Z,8.33
2023-04-18T07:33:11.496Z,8.65
2023-04-18T07:34:11.743Z,6.72
2023-04-18T07:35:11.510Z,8.65
2023-04-18T07:36:11.514Z,8.33
2023-04-18T07:37:12.987Z,4.46
2023-04-18T07:38:11.447Z,7.04
2023-04-18T07:39:11.443Z,8.33
2023-04-18T07:40:11.453Z,10.91
2023-04-18T07:41:12.039Z,8.97
2023-04-18T07:42:11.439Z,8.33
2023-04-18T07:43:11.375Z,6.40
2023-04-18T07:44:11.616Z,8.65
2023-04-18T07:45:11.384Z,8.33
2023-04-18T07:46:11.405Z,12.20
2023-04-18T07:47:11.454Z,3.82
2023-04-18T07:48:11.450Z,9.30
2023-04-18T07:49:11.604Z,8.97
2023-04-18T07:50:11.335Z,8.97
2023-04-18T07:51:11.334Z,6.40
2023-04-18T07:52:11.310Z,7.36
2023-04-18T07:53:11.306Z,8.01
2023-04-18T07:54:11.332Z,9.94
2023-04-18T07:55:11.267Z,8.33
2023-04-18T07:56:11.358Z,9.30
2023-04-18T07:57:11.336Z,7.04
2023-04-18T07:58:11.240Z,12.52
2023-04-18T07:59:11.339Z,9.30
2023-04-18T08:00:11.217Z,8.33
2023-04-18T08:01:11.272Z,8.65
2023-04-18T08:02:11.264Z,10.59
2023-04-18T08:03:11.311Z,8.65
2023-04-18T08:04:11.331Z,6.72
2023-04-18T08:05:11.268Z,7.69
2023-04-18T08:06:11.193Z,6.40
2023-04-18T08:07:11.148Z,8.65
2023-04-18T08:08:11.174Z,8.65
2023-04-18T08:09:11.206Z,8.65
2023-04-18T08:10:11.121Z,8.33
2023-04-18T08:11:11.114Z,8.97
2023-04-18T08:12:11.111Z,10.26
2023-04-18T08:13:11.079Z,8.97
2023-04-18T08:14:11.073Z,10.59
2023-04-18T08:15:11.089Z,10.59
2023-04-18T08:16:11.148Z,9.30
2023-04-18T08:17:11.055Z,4.79
2023-04-18T08:18:11.032Z,11.23
2023-04-18T08:19:11.223Z,8.01
2023-04-18T08:20:11.010Z,8.01
2023-04-18T08:21:11.022Z,8.65
2023-04-18T08:22:10.988Z,5.11
2023-04-18T08:23:13.039Z,7.04
2023-04-18T08:24:10.988Z,6.72
2023-04-18T08:25:10.988Z,11.87
2023-04-18T08:26:10.968Z,9.30
2023-04-18T08:27:10.934Z,10.59
2023-04-18T08:28:10.944Z,8.65
2023-04-18T08:29:10.992Z,7.36
2023-04-18T08:30:10.960Z,7.69
2023-04-18T08:31:10.940Z,9.94
2023-04-18T08:32:10.974Z,10.26
2023-04-18T08:33:10.957Z,6.40
2023-04-18T08:34:10.887Z,8.97
2023-04-18T08:35:10.871Z,7.36
2023-04-18T08:36:10.900Z,9.94
2023-04-18T08:37:10.825Z,9.62
2023-04-18T08:38:10.836Z,8.01
2023-04-18T08:39:10.914Z,9.30
2023-04-18T08:40:10.811Z,9.30
2023-04-18T08:41:10.810Z,9.62
2023-04-18T08:42:10.816Z,12.20
2023-04-18T08:43:10.798Z,11.55
2023-04-18T08:44:10.758Z,8.97
2023-04-18T08:45:10.834Z,9.62
2023-04-18T08:46:10.786Z,6.40
2023-04-18T08:47:10.742Z,9.62
2023-04-18T08:48:10.777Z,7.04
2023-04-18T08:49:12.025Z,7.36
2023-04-18T08:50:10.760Z,9.62
2023-04-18T08:51:10.709Z,8.01
2023-04-18T08:52:10.757Z,9.94
2023-04-18T08:53:10.711Z,7.04
2023-04-18T08:54:10.658Z,8.33
2023-04-18T08:55:10.657Z,7.36
2023-04-18T08:56:10.699Z,10.91
2023-04-18T08:57:10.663Z,10.26
2023-04-18T08:58:10.622Z,9.62
2023-04-18T08:59:10.623Z,9.94
2023-04-18T09:00:10.588Z,9.30
2023-04-18T09:01:10.618Z,8.33
2023-04-18T09:02:10.636Z,11.87
2023-04-18T09:03:10.596Z,9.62
2023-04-18T09:04:10.626Z,10.26
2023-04-18T09:05:10.626Z,9.94
2023-04-18T09:06:10.555Z,10.26
2023-04-18T09:07:10.572Z,8.97
2023-04-18T09:08:10.598Z,10.91
2023-04-18T09:09:10.521Z,8.65
2023-04-18T09:10:10.519Z,10.91
2023-04-18T09:11:10.529Z,9.94
2023-04-18T09:12:10.507Z,10.59
2023-04-18T09:13:10.462Z,9.30
2023-04-18T09:14:10.579Z,10.59
2023-04-18T09:15:10.471Z,10.91
2023-04-18T09:16:10.455Z,10.26
2023-04-18T09:17:10.441Z,10.26
2023-04-18T09:18:10.555Z,10.91
2023-04-18T09:19:10.451Z,13.16
2023-04-18T09:20:10.396Z,10.59
2023-04-18T09:21:10.384Z,12.84
2023-04-18T09:22:10.386Z,10.91
2023-04-18T09:23:10.392Z,11.87
2023-04-18T09:24:10.601Z,12.20
2023-04-18T09:25:10.330Z,12.20
2023-04-18T09:26:10.322Z,13.16
2023-04-18T09:27:10.326Z,14.13
2023-04-18T09:28:10.323Z,15.42
2023-04-18T09:29:10.289Z,14.13
2023-04-18T09:30:10.276Z,12.52
2023-04-18T09:31:10.303Z,13.49
2023-04-18T09:32:10.298Z,13.16
2023-04-18T09:33:10.283Z,11.87
2023-04-18T09:34:10.258Z,9.94
2023-04-18T09:35:10.248Z,12.20
2023-04-18T09:36:10.219Z,12.20
2023-04-18T09:37:10.304Z,12.84
2023-04-18T09:38:10.202Z,11.23
2023-04-18T09:39:10.204Z,15.74
2023-04-18T09:40:10.238Z,13.16
2023-04-18T09:41:10.192Z,13.81
2023-04-18T09:42:10.176Z,12.52
2023-04-18T09:43:10.217Z,14.13
2023-04-18T09:44:12.500Z,15.42
2023-04-18T09:45:10.153Z,15.42
2023-04-18T09:46:10.551Z,16.39
2023-04-18T09:47:10.355Z,15.42
2023-04-18T09:48:10.329Z,16.71
2023-04-18T09:49:11.135Z,15.74
2023-04-18T09:50:10.185Z,14.78
2023-04-18T09:51:10.255Z,16.39
2023-04-18T09:52:10.162Z,17.35
2023-04-18T09:53:10.127Z,14.45
2023-04-18T09:54:10.121Z,14.78
2023-04-18T09:55:10.128Z,14.78
2023-04-18T09:56:10.197Z,14.45
2023-04-18T09:57:10.073Z,12.84
2023-04-18T09:58:10.050Z,11.87
2023-04-18T09:59:10.083Z,13.49
2023-04-18T10:00:10.080Z,13.81
2023-04-18T10:01:09.992Z,14.13
2023-04-18T10:02:10.058Z,13.81
2023-04-18T10:03:10.091Z,12.84
2023-04-18T10:04:10.015Z,10.91
2023-04-18T10:05:09.989Z,12.84
2023-04-18T10:06:09.890Z,14.45
2023-04-18T10:07:09.919Z,15.10
2023-04-18T10:08:09.921Z,15.10
2023-04-18T10:09:09.880Z,14.13
2023-04-18T10:10:09.861Z,14.45
2023-04-18T10:11:09.869Z,14.45
2023-04-18T10:12:09.970Z,13.49
2023-04-18T10:13:09.830Z,14.13
2023-04-18T10:14:09.814Z,13.81
2023-04-18T10:15:09.805Z,16.71
2023-04-18T10:16:09.858Z,12.20
2023-04-18T10:17:09.812Z,17.68
2023-04-18T10:18:09.807Z,14.78
2023-04-18T10:19:09.797Z,14.13
2023-04-18T10:20:09.752Z,16.06
2023-04-18T10:21:09.754Z,15.74
2023-04-18T10:22:09.746Z,15.74
2023-04-18T10:23:09.721Z,16.06
2023-04-18T10:24:09.709Z,15.74
2023-04-18T10:25:09.712Z,15.10
2023-04-18T10:26:09.684Z,15.10
2023-04-18T10:27:09.688Z,17.68
2023-04-18T10:28:09.659Z,16.06
2023-04-18T10:29:09.692Z,14.78
2023-04-18T10:30:09.703Z,14.13
2023-04-18T10:31:09.666Z,17.03
2023-04-18T10:32:09.643Z,12.52
2023-04-18T10:33:18.418Z,10.26
2023-04-18T10:34:09.606Z,14.78
2023-04-18T10:35:09.593Z,15.10
2023-04-18T10:36:09.630Z,17.68
2023-04-18T10:37:09.589Z,15.42
2023-04-18T10:38:09.561Z,16.06
2023-04-18T10:39:09.559Z,14.78
2023-04-18T10:40:09.534Z,16.39
2023-04-18T10:41:09.529Z,16.39
2023-04-18T10:42:09.552Z,15.74
2023-04-18T10:43:09.509Z,16.71
2023-04-18T10:44:09.485Z,17.35
2023-04-18T10:45:09.489Z,17.35
2023-04-18T10:46:20.193Z,18.00
2023-04-18T10:47:09.511Z,17.68
2023-04-18T10:48:09.521Z,18.96
2023-04-18T10:49:09.476Z,20.90
2023-04-18T10:50:09.448Z,18.96
2023-04-18T10:51:09.427Z,18.64
2023-04-18T10:52:10.155Z,17.03
2023-04-18T10:53:09.477Z,18.96
2023-04-18T10:54:09.398Z,16.39
2023-04-18T10:55:09.434Z,18.96
2023-04-18T10:56:09.361Z,16.71
2023-04-18T10:57:09.510Z,16.71
2023-04-18T10:58:09.507Z,16.71
2023-04-18T10:59:09.341Z,18.96
2023-04-18T11:00:09.336Z,21.87
2023-04-18T11:01:09.346Z,16.06
2023-04-18T11:02:09.359Z,18.32
2023-04-18T11:03:09.394Z,18.64
2023-04-18T11:04:09.442Z,20.90
2023-04-18T11:05:09.278Z,16.06
2023-04-18T11:06:09.269Z,18.00
2023-04-18T11:07:09.311Z,20.25
2023-04-18T11:08:09.289Z,17.68
2023-04-18T11:09:09.252Z,20.90
2023-04-18T11:10:09.232Z,18.96
2023-04-18T11:11:09.226Z,18.96
2023-04-18T11:12:09.308Z,17.68
2023-04-18T11:13:09.205Z,19.93
2023-04-18T11:14:09.180Z,19.29
2023-04-18T11:15:09.177Z,19.61
2023-04-18T11:16:09.188Z,19.29
2023-04-18T11:17:09.217Z,18.96
2023-04-18T11:18:09.160Z,18.64
2023-04-18T11:19:09.129Z,18.32
2023-04-18T11:20:09.171Z,18.96
2023-04-18T11:21:09.156Z,17.68
2023-04-18T11:22:09.130Z,18.64
2023-04-18T11:23:09.144Z,15.10
2023-04-18T11:24:09.078Z,19.29
2023-04-18T11:25:09.077Z,14.78
2023-04-18T11:26:09.065Z,17.35
2023-04-18T11:27:09.068Z,17.03
2023-04-18T11:28:09.028Z,16.39
2023-04-18T11:29:09.650Z,18.32
2023-04-18T11:30:09.343Z,17.68
2023-04-18T11:31:09.013Z,16.06
2023-04-18T11:32:09.088Z,15.74
2023-04-18T11:33:09.150Z,14.45
2023-04-18T11:34:08.970Z,14.45
2023-04-18T11:35:08.984Z,15.42
2023-04-18T11:36:08.955Z,9.30
2023-04-18T11:37:08.997Z,14.45
2023-04-18T11:38:08.962Z,14.78
2023-04-18T11:39:08.922Z,14.45
2023-04-18T11:40:08.908Z,12.20
2023-04-18T11:41:08.915Z,14.45
2023-04-18T11:42:08.905Z,14.45
2023-04-18T11:43:08.919Z,14.13
2023-04-18T11:44:08.897Z,7.04
2023-04-18T11:45:08.870Z,13.16
2023-04-18T11:46:08.919Z,11.87
2023-04-18T11:47:08.925Z,11.23
2023-04-18T11:48:08.868Z,14.45
2023-04-18T11:49:08.856Z,14.78
2023-04-18T11:50:08.811Z,13.49
2023-04-18T11:51:08.791Z,13.16
2023-04-18T11:52:08.797Z,13.49
2023-04-18T11:53:08.776Z,14.78
2023-04-18T11:54:08.762Z,11.87
2023-04-18T11:55:08.825Z,12.20
2023-04-18T11:56:08.737Z,12.52
2023-04-18T11:57:08.756Z,13.49
2023-04-18T11:58:08.714Z,13.81
2023-04-18T11:59:08.709Z,12.52
2023-04-18T12:00:08.876Z,13.81
2023-04-18T12:01:08.816Z,14.13
2023-04-18T12:02:16.288Z,13.16
2023-04-18T12:03:10.016Z,13.49
2023-04-18T12:04:09.141Z,11.87
2023-04-18T12:05:09.031Z,12.84
2023-04-18T12:06:08.726Z,13.49
2023-04-18T12:07:08.669Z,13.49
2023-04-18T12:08:08.621Z,11.55
2023-04-18T12:09:08.643Z,11.55
2023-04-18T12:10:08.593Z,13.16
2023-04-18T12:11:08.618Z,13.16
2023-04-18T12:12:08.623Z,13.16
2023-04-18T12:13:08.612Z,13.49
2023-04-18T12:14:08.543Z,12.52
2023-04-18T12:15:08.616Z,13.49
2023-04-18T12:16:08.583Z,13.16
2023-04-18T12:17:08.522Z,13.16
2023-04-18T12:18:08.700Z,12.52
2023-04-18T12:19:08.508Z,12.84
2023-04-18T12:20:08.473Z,12.84
2023-04-18T12:21:08.508Z,13.16
2023-04-18T12:22:08.512Z,12.84
2023-04-18T12:23:08.457Z,12.84
2023-04-18T12:24:08.521Z,11.55
2023-04-18T12:25:08.451Z,10.26
2023-04-18T12:26:08.467Z,15.74
2023-04-18T12:27:08.473Z,13.49
2023-04-18T12:28:08.468Z,13.81
2023-04-18T12:29:08.414Z,13.49
2023-04-18T12:30:08.400Z,13.49
2023-04-18T12:31:08.418Z,13.49
2023-04-18T12:32:08.398Z,14.45
2023-04-18T12:33:08.351Z,13.49
2023-04-18T12:34:08.385Z,12.52
2023-04-18T12:35:08.342Z,13.49
2023-04-18T12:36:08.323Z,14.13
2023-04-18T12:37:08.325Z,13.81
2023-04-18T12:38:08.301Z,14.45
2023-04-18T12:39:08.321Z,14.45
2023-04-18T12:40:08.276Z,17.03
2023-04-18T12:41:08.276Z,15.10
2023-04-18T12:42:08.261Z,13.49
2023-04-18T12:43:08.247Z,14.78
2023-04-18T12:44:08.289Z,16.39
2023-04-18T12:45:08.252Z,15.74
2023-04-18T12:46:08.208Z,13.81
2023-04-18T12:47:08.286Z,16.71
2023-04-18T12:48:08.187Z,12.52
2023-04-18T12:49:08.263Z,16.71
2023-04-18T12:50:09.995Z,14.13
2023-04-18T12:51:08.148Z,16.06
2023-04-18T12:52:08.182Z,13.81
2023-04-18T12:53:08.132Z,14.45
2023-04-18T12:54:08.163Z,12.20
2023-04-18T12:55:08.129Z,15.42
2023-04-18T12:56:08.122Z,15.74
2023-04-18T12:57:08.110Z,15.10
2023-04-18T12:58:08.074Z,13.81
2023-04-18T12:59:08.071Z,16.06
2023-04-18T13:00:08.103Z,12.84
2023-04-18T13:01:08.095Z,12.84
2023-04-18T13:02:08.248Z,14.45
2023-04-18T13:03:09.136Z,14.13
2023-04-18T13:04:12.348Z,15.10
2023-04-18T13:05:08.008Z,12.52
2023-04-18T13:06:07.991Z,14.13
2023-04-18T13:07:08.025Z,13.16
2023-04-18T13:08:17.169Z,14.13